Beverly Hills, CA

8:33 AM PDT on September 16, 2014 (GMT -0700)
Santa Monica College Hill | Change Station
CLOSE
Current Station
Personal Weather Station
Location: Santa Monica, CA
Elevation: 157 ft
Nearby Weather Stations

Elev 157 ft 34.02 °N, 118.47 °W | Updated 43 seconds ago

Clear
Clear
78.0 °F
Feels Like 80 °F
N
0.0
Wind Variable Wind from WNW
Gusts 0.0 mph

Today
High -- | Low -- °F
--% Chance of Precip.
Yesterday
High -- | Low -- °F
Precip. -- in
6:37 AM 6:58 PM
Last Quarter, 44% visible
Pressure 29.77 in
Visibility 9.0 miles
Clouds Clear
Heat Index 80 °F
Dew Point 66 °F
Humidity 67%
Rainfall 0.00 in
Snow Depth 1 in , 0 in , 1 in
UV 0.0 out of 12
Pollen 6.80 out of 12
Ozone Good
Flu Activity Not available.
METAR KSMO 161451Z 24003KT 9SM CLR 24/17 A2978 RMK AO2 SLP081 T02440172 53008

More Conditions Fewer Conditions

Pressure 29.77 in
Visibility 9.0 miles
Clouds Clear
Heat Index 80 °F
Dew Point 66 °F
Humidity 67%
Rainfall 0.00 in
Snow Depth 1 in , 0 in , 1 in
UV 0.0 out of 12
Pollen 6.80 out of 12
Ozone Good
Flu Activity Not available.
METAR KSMO 161451Z 24003KT 9SM CLR 24/17 A2978 RMK AO2 SLP081 T02440172 53008

More Conditions Fewer Conditions

10-Day Weather Forecast

Almanac

Astronomy

Sep. 16, 2014 Rise Set
Actual Time 6:37 AM PDT 6:58 PM PDT
Civil Twilight 6:12 AM PDT 7:23 PM PDT
Nautical Twilight 5:43 AM PDT 7:52 PM PDT
Astronomical Twilight 5:13 AM PDT 8:22 PM PDT
Moon 12:02 AM PDT 2:14 PM PDT
Length of Visible Light 13h 11m
Length of Day
12h 21m
Tomorrow will be 2m 5s shorter.
Last Quarter, 44% of the Moon is Illuminated
Today
Last Quarter
Sep 24
New
Oct 1
First Quarter
Oct 8
Full
Oct 15
Last Quarter

Today's Extremes

State Highs State Lows

Community

WunderPhotos

Upload Photos

1,753,810 photos uploaded!

Nearby

Air Quality

  Air Quality AQ Index Pollutant
Yesterday Good
OZONE
Current Good
OZONE
Tuesday Good
PM10
Tuesday Good
OZONE
Tuesday Good
CO
Tuesday Good
NO2

Snow Depth

Station Depth Elevation
Spratt Creek 1 in 6200 ft
Monitor Pass 0 in 8350 ft
Leavitt Meadows 1 in 7200 ft
Leavitt Lake 1 in 9400 ft
CSS Lab 2 in 6900 ft

Earthquake Activity

City Distance Mag. Time & Date
La Quinta, California 118 miles 2.7 8:59 PM PDT
2014-09-15
Inyokern, California 129 miles 3.2 5:56 PM PDT
2014-09-14
San Jacinto, California 84 miles 3.0 3:16 PM PDT
2014-09-14
Minimum magnitude displayed is 2.5.

Coastal Water Temperatures

Place Temperature
Santa Monica Pier 71.1 °F
Los Angeles, CA 69.1 °F
La Jolla, CA 70.0 °F

Nearby Weather Stations